createdAt,value
2019-03-22T00:00:39.852Z,63.70
2019-03-22T00:03:09.212Z,62.97
2019-03-22T00:05:38.559Z,63.39
2019-03-22T00:08:08.062Z,63.91
2019-03-22T00:10:37.603Z,64.92
2019-03-22T00:13:08.183Z,64.03
2019-03-22T00:15:38.127Z,64.24
2019-03-22T00:18:07.618Z,64.49
2019-03-22T00:20:36.962Z,64.89
2019-03-22T00:23:06.464Z,65.03
2019-03-22T00:25:35.987Z,65.79
2019-03-22T00:28:05.431Z,65.64
2019-03-22T00:30:34.962Z,66.06
2019-03-22T00:33:04.385Z,65.66
2019-03-22T00:35:33.734Z,65.83
2019-03-22T00:38:03.271Z,66.50
2019-03-22T00:40:32.767Z,66.55
2019-03-22T00:43:02.176Z,67.28
2019-03-22T00:45:31.750Z,67.14
2019-03-22T00:48:01.125Z,67.47
2019-03-22T00:50:30.567Z,67.89
2019-03-22T00:52:59.995Z,67.65
2019-03-22T00:55:29.332Z,67.79
2019-03-22T00:57:58.754Z,68.15
2019-03-22T01:00:28.281Z,68.89
2019-03-22T01:02:57.926Z,68.59
2019-03-22T01:05:27.417Z,67.59
2019-03-22T01:07:57.026Z,67.95
2019-03-22T01:10:26.455Z,68.85
2019-03-22T01:12:56.281Z,69.18
2019-03-22T01:15:25.780Z,69.61
2019-03-22T01:17:55.296Z,70.03
2019-03-22T01:20:24.641Z,69.76
2019-03-22T01:22:54.150Z,69.80
2019-03-22T01:25:23.634Z,69.51
2019-03-22T01:27:53.059Z,69.80
2019-03-22T01:30:22.432Z,69.89
2019-03-22T01:32:51.887Z,70.26
2019-03-22T01:35:21.442Z,70.48
2019-03-22T01:37:50.858Z,69.99
2019-03-22T01:40:20.260Z,69.56
2019-03-22T01:42:49.728Z,68.99
2019-03-22T01:45:19.251Z,69.29
2019-03-22T01:47:48.754Z,69.18
2019-03-22T01:50:18.334Z,70.08
2019-03-22T01:52:47.850Z,70.40
2019-03-22T01:55:17.509Z,70.24
2019-03-22T01:57:52.997Z,69.88
2019-03-22T02:00:18.685Z,70.09
2019-03-22T02:02:48.260Z,69.95
2019-03-22T02:05:18.047Z,70.07
2019-03-22T02:07:47.595Z,69.65
2019-03-22T02:10:17.721Z,68.96
2019-03-22T02:12:47.331Z,69.13
2019-03-22T02:15:17.444Z,69.81
2019-03-22T02:17:46.931Z,70.10
2019-03-22T02:20:16.561Z,68.67
2019-03-22T02:22:46.123Z,69.71
2019-03-22T02:25:15.720Z,70.66
2019-03-22T02:27:45.331Z,71.09
2019-03-22T02:30:15.122Z,71.64
2019-03-22T02:32:44.619Z,71.32
2019-03-22T02:35:27.661Z,70.38
2019-03-22T02:37:45.447Z,71.16
2019-03-22T02:40:14.953Z,71.01
2019-03-22T02:42:44.425Z,71.55
2019-03-22T02:45:14.414Z,72.01
2019-03-22T02:47:44.032Z,72.47
2019-03-22T02:50:18.381Z,72.11
2019-03-22T02:52:45.352Z,72.69
2019-03-22T02:55:15.075Z,72.87
2019-03-22T02:57:44.550Z,72.59
2019-03-22T03:00:14.509Z,71.94
2019-03-22T03:02:44.009Z,72.55
2019-03-22T03:05:14.289Z,72.41
2019-03-22T03:07:43.896Z,71.72
2019-03-22T03:10:13.776Z,71.44
2019-03-22T03:12:43.319Z,71.90
2019-03-22T03:15:13.359Z,72.19
2019-03-22T03:17:42.837Z,72.53
2019-03-22T03:20:13.634Z,72.98
2019-03-22T03:22:43.159Z,72.74
2019-03-22T03:25:13.143Z,72.39
2019-03-22T03:27:42.685Z,73.22
2019-03-22T03:30:14.476Z,73.12
2019-03-22T03:32:44.048Z,73.06
2019-03-22T03:35:13.623Z,73.55
2019-03-22T03:37:43.204Z,74.18
2019-03-22T03:40:13.003Z,73.28
2019-03-22T03:42:42.552Z,73.92
2019-03-22T03:45:28.442Z,73.88
2019-03-22T03:47:57.927Z,73.99
2019-03-22T03:50:27.425Z,73.88
2019-03-22T03:52:56.914Z,73.79
2019-03-22T03:55:26.425Z,73.64
2019-03-22T03:57:55.849Z,73.67
2019-03-22T04:00:26.623Z,74.52
2019-03-22T04:02:56.083Z,74.75
2019-03-22T04:05:25.616Z,74.54
2019-03-22T04:07:55.067Z,74.98
2019-03-22T04:10:24.438Z,73.37
2019-03-22T04:12:53.885Z,72.57
2019-03-22T04:15:23.274Z,72.80
2019-03-22T04:17:52.837Z,73.53
2019-03-22T04:20:22.206Z,74.38
2019-03-22T04:22:51.724Z,74.76
2019-03-22T04:25:21.163Z,74.49
2019-03-22T04:27:50.586Z,74.39
2019-03-22T04:30:19.995Z,74.37
2019-03-22T04:32:49.502Z,73.90
2019-03-22T04:35:18.946Z,74.09
2019-03-22T04:37:48.244Z,74.82
2019-03-22T04:40:25.939Z,75.19
2019-03-22T04:42:55.629Z,75.25
2019-03-22T04:45:26.759Z,75.30
2019-03-22T04:48:10.853Z,75.01
2019-03-22T04:50:43.574Z,74.35
2019-03-22T04:53:16.300Z,74.62
2019-03-22T04:55:48.707Z,74.60
2019-03-22T04:58:21.150Z,74.84
2019-03-22T05:00:53.280Z,74.93
2019-03-22T05:03:24.785Z,75.54
2019-03-22T05:05:56.487Z,76.06
2019-03-22T05:08:29.025Z,76.41
2019-03-22T05:11:00.720Z,76.29
2019-03-22T05:13:32.437Z,75.78
2019-03-22T05:16:02.667Z,75.48
2019-03-22T05:18:33.856Z,76.08
2019-03-22T05:21:04.983Z,76.09
2019-03-22T05:23:34.809Z,76.17
2019-03-22T05:26:04.786Z,75.75
2019-03-22T05:28:35.305Z,76.26
2019-03-22T05:31:58.151Z,76.27
2019-03-22T05:34:28.180Z,76.41
2019-03-22T05:36:57.689Z,75.92
2019-03-22T05:39:27.152Z,76.09
2019-03-22T05:41:56.587Z,75.71
2019-03-22T05:44:29.546Z,75.73
2019-03-22T05:47:00.870Z,75.60
2019-03-22T05:49:30.392Z,75.92
2019-03-22T05:51:59.800Z,75.61
2019-03-22T05:54:29.281Z,75.60
2019-03-22T05:56:59.108Z,74.69
2019-03-22T05:59:28.542Z,74.30
2019-03-22T06:01:58.005Z,74.51
2019-03-22T06:04:27.470Z,74.56
2019-03-22T06:06:56.911Z,73.56
2019-03-22T06:09:26.390Z,72.39
2019-03-22T06:11:55.887Z,71.72
2019-03-22T06:14:25.342Z,71.72
2019-03-22T06:16:54.769Z,71.68
2019-03-22T06:19:24.205Z,71.74
2019-03-22T06:21:53.631Z,71.78
2019-03-22T06:24:23.087Z,71.12
2019-03-22T06:26:52.403Z,71.72
2019-03-22T06:29:21.938Z,71.04
2019-03-22T06:31:51.297Z,70.76
2019-03-22T06:34:20.784Z,70.85
2019-03-22T06:36:50.238Z,70.40
2019-03-22T06:39:19.699Z,69.61
2019-03-22T06:41:49.129Z,68.06
2019-03-22T06:44:18.488Z,67.03
2019-03-22T06:46:47.900Z,66.63
2019-03-22T06:49:17.478Z,67.54
2019-03-22T06:51:46.991Z,68.10
2019-03-22T06:54:16.428Z,68.41
2019-03-22T06:56:45.821Z,67.86
2019-03-22T06:59:15.242Z,67.17
2019-03-22T07:01:44.678Z,67.05
2019-03-22T07:04:14.221Z,66.04
2019-03-22T07:06:43.674Z,66.13
2019-03-22T07:09:13.092Z,66.76
2019-03-22T07:11:42.605Z,66.34
2019-03-22T07:14:12.258Z,65.49
2019-03-22T07:16:41.663Z,65.59
2019-03-22T07:19:11.168Z,64.96
2019-03-22T07:21:40.554Z,64.61
2019-03-22T07:24:09.946Z,64.83
2019-03-22T07:26:39.379Z,64.41
2019-03-22T07:29:08.910Z,64.16
2019-03-22T07:31:38.345Z,63.69
2019-03-22T07:34:07.957Z,64.02
2019-03-22T07:36:37.509Z,63.27
2019-03-22T07:39:08.589Z,62.23
2019-03-22T07:41:38.141Z,62.13
2019-03-22T07:44:07.651Z,62.13
2019-03-22T07:46:37.136Z,61.51
2019-03-22T07:49:06.654Z,61.37
2019-03-22T07:51:36.177Z,61.01
2019-03-22T07:54:05.957Z,60.60
2019-03-22T07:56:35.345Z,59.83
2019-03-22T07:59:04.821Z,60.42
2019-03-22T08:01:34.313Z,60.10
2019-03-22T08:04:03.902Z,60.42
2019-03-22T08:06:33.465Z,60.48
2019-03-22T08:09:03.955Z,59.91
2019-03-22T08:11:33.452Z,59.11
2019-03-22T08:14:03.140Z,58.62
2019-03-22T08:16:32.712Z,57.83
2019-03-22T08:19:02.273Z,57.38
2019-03-22T08:21:31.720Z,56.49
2019-03-22T08:24:01.188Z,55.59
2019-03-22T08:26:30.640Z,55.56
2019-03-22T08:29:00.260Z,54.67
2019-03-22T08:31:29.793Z,53.40
2019-03-22T08:33:59.472Z,52.20
2019-03-22T08:36:29.081Z,51.03
2019-03-22T08:38:58.561Z,50.66
2019-03-22T08:41:30.145Z,49.98
2019-03-22T08:44:02.606Z,50.00
2019-03-22T08:46:30.816Z,48.74
2019-03-22T08:49:00.302Z,49.03
2019-03-22T08:51:30.105Z,48.83
2019-03-22T08:53:59.731Z,48.52
2019-03-22T08:56:29.255Z,47.99
2019-03-22T08:58:58.640Z,47.78
2019-03-22T09:01:28.167Z,47.86
2019-03-22T09:03:57.608Z,48.09
2019-03-22T09:06:27.175Z,48.13
2019-03-22T09:08:56.620Z,47.77
2019-03-22T09:11:26.153Z,47.20
2019-03-22T09:13:55.603Z,45.96
2019-03-22T09:16:25.284Z,45.42
2019-03-22T09:18:54.647Z,44.62
2019-03-22T09:21:24.277Z,44.52
2019-03-22T09:23:53.731Z,44.73
2019-03-22T09:26:23.210Z,42.92
2019-03-22T09:28:52.594Z,42.92
2019-03-22T09:31:22.134Z,42.74
2019-03-22T09:33:51.703Z,42.26
2019-03-22T09:36:21.137Z,42.41
2019-03-22T09:38:50.682Z,42.10
2019-03-22T09:41:20.355Z,41.89
2019-03-22T09:43:49.891Z,41.68
2019-03-22T09:46:19.532Z,41.39
2019-03-22T09:48:49.220Z,41.14
2019-03-22T09:51:18.746Z,41.32
2019-03-22T09:53:48.250Z,40.98
2019-03-22T09:56:17.695Z,40.00
2019-03-22T09:58:47.349Z,38.98
2019-03-22T10:01:23.580Z,38.71
2019-03-22T10:03:52.320Z,38.58
2019-03-22T10:06:22.366Z,37.88
2019-03-22T10:08:51.875Z,37.83
2019-03-22T10:11:21.565Z,38.02
2019-03-22T10:13:51.046Z,37.42
2019-03-22T10:16:20.661Z,36.93
2019-03-22T10:18:50.074Z,35.68
2019-03-22T10:21:22.579Z,35.98
2019-03-22T10:23:50.682Z,35.56
2019-03-22T10:26:20.227Z,35.07
2019-03-22T10:28:49.732Z,34.92
2019-03-22T10:31:19.272Z,34.15
2019-03-22T10:33:48.796Z,33.45
2019-03-22T10:36:18.293Z,34.37
2019-03-22T10:38:50.351Z,33.12
2019-03-22T10:41:19.060Z,32.63
2019-03-22T10:43:48.599Z,32.93
2019-03-22T10:46:18.182Z,32.63
2019-03-22T10:48:47.598Z,31.37
2019-03-22T10:51:17.051Z,30.89
2019-03-22T10:53:46.541Z,30.63
2019-03-22T10:56:16.025Z,30.27
2019-03-22T10:58:45.567Z,30.19
2019-03-22T11:01:15.400Z,30.02
2019-03-22T11:03:45.000Z,30.23
2019-03-22T11:06:14.660Z,30.05
2019-03-22T11:08:44.148Z,30.54
2019-03-22T11:11:13.809Z,30.93
2019-03-22T11:13:43.243Z,31.03
2019-03-22T11:16:12.658Z,31.08
2019-03-22T11:18:42.192Z,30.11
2019-03-22T11:21:11.756Z,30.21
2019-03-22T11:23:41.250Z,29.91
2019-03-22T11:26:10.804Z,30.32
2019-03-22T11:28:40.376Z,29.86
2019-03-22T11:31:09.920Z,29.69
2019-03-22T11:33:39.427Z,29.44
2019-03-22T11:36:08.873Z,29.94
2019-03-22T11:38:38.416Z,29.25
2019-03-22T11:41:07.951Z,29.66
2019-03-22T11:43:37.465Z,29.17
2019-03-22T11:46:06.942Z,29.81
2019-03-22T11:48:36.345Z,29.69
2019-03-22T11:51:05.971Z,28.31
2019-03-22T11:53:35.459Z,28.90
2019-03-22T11:56:05.113Z,29.29
2019-03-22T11:58:34.700Z,29.20
2019-03-22T12:01:04.254Z,29.31
2019-03-22T12:03:33.712Z,29.35
2019-03-22T12:06:03.342Z,28.89
2019-03-22T12:08:32.999Z,28.95
2019-03-22T12:11:02.579Z,28.72
2019-03-22T12:13:32.056Z,28.54
2019-03-22T12:16:01.872Z,28.24
2019-03-22T12:18:31.419Z,28.30
2019-03-22T12:21:01.023Z,28.63
2019-03-22T12:23:30.596Z,28.66
2019-03-22T12:26:00.034Z,28.31
2019-03-22T12:28:29.638Z,28.31
2019-03-22T12:30:59.148Z,28.42
2019-03-22T12:33:28.607Z,28.29
2019-03-22T12:35:58.028Z,28.69
2019-03-22T12:38:27.468Z,28.35
2019-03-22T12:40:56.987Z,28.10
2019-03-22T12:43:26.400Z,28.80
2019-03-22T12:45:56.023Z,28.52
2019-03-22T12:48:25.356Z,28.90
2019-03-22T12:50:54.864Z,29.30
2019-03-22T12:53:24.348Z,29.24
2019-03-22T12:55:53.831Z,29.40
2019-03-22T12:58:23.311Z,29.24
2019-03-22T13:00:52.854Z,29.10
2019-03-22T13:03:24.303Z,29.14
2019-03-22T13:05:53.502Z,29.14
2019-03-22T13:08:23.108Z,29.22
2019-03-22T13:10:52.492Z,29.46
2019-03-22T13:13:21.918Z,29.22
2019-03-22T13:15:51.416Z,28.94
2019-03-22T13:18:20.827Z,28.02
2019-03-22T13:20:51.164Z,28.01
2019-03-22T13:23:20.762Z,28.21
2019-03-22T13:25:50.159Z,29.21
2019-03-22T13:28:19.593Z,28.54
2019-03-22T13:30:49.247Z,28.84
2019-03-22T13:33:18.752Z,28.59
2019-03-22T13:35:48.313Z,28.59
2019-03-22T13:38:17.828Z,28.67
2019-03-22T13:40:47.339Z,28.67
2019-03-22T13:43:16.789Z,28.56
2019-03-22T13:45:46.303Z,28.05
2019-03-22T13:48:15.685Z,28.28
2019-03-22T13:50:45.117Z,28.56
2019-03-22T13:53:14.443Z,28.41
2019-03-22T13:55:43.904Z,28.03
2019-03-22T13:58:13.377Z,27.44
2019-03-22T14:00:42.910Z,28.17
2019-03-22T14:03:12.525Z,28.33
2019-03-22T14:05:41.977Z,28.74
2019-03-22T14:08:11.680Z,27.30
2019-03-22T14:10:41.062Z,28.05
2019-03-22T14:13:10.557Z,28.39
2019-03-22T14:15:40.075Z,27.08
2019-03-22T14:18:09.516Z,27.23
2019-03-22T14:20:38.981Z,26.34
2019-03-22T14:23:08.555Z,25.86
2019-03-22T14:25:38.115Z,26.44
2019-03-22T14:28:07.593Z,26.24
2019-03-22T14:30:37.609Z,26.47
2019-03-22T14:33:13.310Z,25.91
2019-03-22T14:35:38.533Z,26.08
2019-03-22T14:38:08.142Z,26.75
2019-03-22T14:40:37.631Z,26.42
2019-03-22T14:43:06.990Z,25.42
2019-03-22T14:45:36.506Z,24.54
2019-03-22T14:48:06.093Z,24.53
2019-03-22T14:50:35.578Z,24.06
2019-03-22T14:53:05.219Z,22.63
2019-03-22T14:55:34.811Z,23.37
2019-03-22T14:58:04.753Z,22.89
2019-03-22T15:00:34.403Z,22.27
2019-03-22T15:03:08.695Z,22.67
2019-03-22T15:05:38.179Z,21.70
2019-03-22T15:08:10.055Z,22.39
2019-03-22T15:10:38.960Z,22.38
2019-03-22T15:13:08.520Z,22.37
2019-03-22T15:16:02.894Z,22.06
2019-03-22T15:18:54.532Z,21.96
2019-03-22T15:21:51.527Z,21.92
2019-03-22T15:24:44.159Z,21.57
2019-03-22T15:27:41.481Z,21.44
2019-03-22T15:30:48.801Z,21.42
2019-03-22T15:33:35.786Z,22.06
2019-03-22T15:36:21.230Z,21.23
2019-03-22T15:39:09.269Z,20.65
2019-03-22T15:41:38.948Z,20.22
2019-03-22T15:44:08.553Z,21.21
2019-03-22T15:46:40.955Z,20.80
2019-03-22T15:49:10.560Z,20.93
2019-03-22T15:51:39.970Z,20.44
2019-03-22T15:54:09.646Z,20.25
2019-03-22T15:56:39.159Z,20.08
2019-03-22T15:59:08.766Z,19.98
2019-03-22T16:01:38.510Z,20.26
2019-03-22T16:04:08.062Z,20.91
2019-03-22T16:06:38.575Z,20.78
2019-03-22T16:09:08.899Z,20.95
2019-03-22T16:11:38.452Z,21.57
2019-03-22T16:14:07.947Z,21.41
2019-03-22T16:16:37.497Z,20.84
2019-03-22T16:19:07.059Z,21.25
2019-03-22T16:21:36.600Z,20.10
2019-03-22T16:24:06.135Z,20.32
2019-03-22T16:26:35.827Z,20.50
2019-03-22T16:29:06.642Z,20.51
2019-03-22T16:31:36.254Z,20.91
2019-03-22T16:34:05.767Z,20.38
2019-03-22T16:36:35.204Z,20.41
2019-03-22T16:39:08.052Z,20.53
2019-03-22T16:41:37.497Z,20.83
2019-03-22T16:44:07.146Z,21.17
2019-03-22T16:46:38.001Z,21.07
2019-03-22T16:49:08.445Z,20.85
2019-03-22T16:51:37.852Z,20.99
2019-03-22T16:54:07.539Z,21.00
2019-03-22T16:56:36.886Z,21.70
2019-03-22T16:59:07.607Z,22.90
2019-03-22T17:01:40.832Z,23.56
2019-03-22T17:04:10.357Z,22.32
2019-03-22T17:06:39.788Z,22.09
2019-03-22T17:09:09.450Z,22.66
2019-03-22T17:11:38.978Z,23.82
2019-03-22T17:14:08.411Z,24.21
2019-03-22T17:16:37.882Z,23.89
2019-03-22T17:19:07.474Z,24.56
2019-03-22T17:21:36.979Z,24.89
2019-03-22T17:24:06.594Z,25.71
2019-03-22T17:26:36.059Z,26.18
2019-03-22T17:29:07.617Z,26.31
2019-03-22T17:31:36.753Z,27.84
2019-03-22T17:34:13.953Z,28.88
2019-03-22T17:36:38.282Z,29.60
2019-03-22T17:39:08.651Z,30.66
2019-03-22T17:41:38.140Z,30.28
2019-03-22T17:44:07.580Z,30.91
2019-03-22T17:46:37.145Z,31.66
2019-03-22T17:49:08.232Z,32.74
2019-03-22T17:51:37.797Z,33.52
2019-03-22T17:54:07.238Z,34.05
2019-03-22T17:56:36.749Z,34.01
2019-03-22T17:59:06.297Z,34.56
2019-03-22T18:01:35.856Z,35.31
2019-03-22T18:04:05.631Z,35.35
2019-03-22T18:06:35.108Z,36.18
2019-03-22T18:09:06.133Z,35.92
2019-03-22T18:11:35.822Z,36.88
2019-03-22T18:14:05.583Z,37.67
2019-03-22T18:16:35.164Z,37.99
2019-03-22T18:19:04.635Z,37.78
2019-03-22T18:21:34.662Z,36.36
2019-03-22T18:24:04.108Z,37.61
2019-03-22T18:26:33.691Z,38.14
2019-03-22T18:29:03.306Z,39.39
2019-03-22T18:31:32.803Z,39.50
2019-03-22T18:34:02.294Z,39.91
2019-03-22T18:36:31.862Z,40.50
2019-03-22T18:39:01.350Z,41.91
2019-03-22T18:41:31.021Z,40.89
2019-03-22T18:44:00.586Z,41.31
2019-03-22T18:46:30.191Z,40.37
2019-03-22T18:48:59.754Z,41.20
2019-03-22T18:51:29.332Z,40.66
2019-03-22T18:53:58.799Z,41.54
2019-03-22T18:56:28.262Z,41.47
2019-03-22T18:58:57.797Z,42.14
2019-03-22T19:01:27.301Z,42.08
2019-03-22T19:03:56.881Z,42.14
2019-03-22T19:06:26.422Z,41.67
2019-03-22T19:08:55.864Z,41.67
2019-03-22T19:11:25.541Z,41.73
2019-03-22T19:13:55.189Z,43.04
2019-03-22T19:16:24.681Z,44.09
2019-03-22T19:18:54.139Z,45.00
2019-03-22T19:21:23.773Z,46.45
2019-03-22T19:23:53.226Z,46.67
2019-03-22T19:26:22.835Z,46.65
2019-03-22T19:28:52.299Z,47.45
2019-03-22T19:31:21.856Z,46.79
2019-03-22T19:33:51.253Z,46.93
2019-03-22T19:36:20.660Z,47.38
2019-03-22T19:38:50.185Z,47.51
2019-03-22T19:41:19.704Z,47.71
2019-03-22T19:43:49.122Z,47.90
2019-03-22T19:46:18.633Z,48.56
2019-03-22T19:48:48.846Z,49.36
2019-03-22T19:51:18.297Z,49.86
2019-03-22T19:53:47.756Z,49.23
2019-03-22T19:56:17.380Z,49.23
2019-03-22T19:58:46.920Z,50.18
2019-03-22T20:01:16.432Z,49.94
2019-03-22T20:03:45.822Z,50.84
2019-03-22T20:06:15.396Z,51.49
2019-03-22T20:08:45.158Z,51.49
2019-03-22T20:11:14.619Z,50.69
2019-03-22T20:13:44.265Z,51.44
2019-03-22T20:16:13.672Z,52.43
2019-03-22T20:18:43.167Z,52.14
2019-03-22T20:21:12.674Z,52.38
2019-03-22T20:23:53.051Z,52.65
2019-03-22T20:26:13.384Z,52.96
2019-03-22T20:28:42.788Z,53.64
2019-03-22T20:31:12.360Z,53.41
2019-03-22T20:33:41.841Z,53.51
2019-03-22T20:36:11.409Z,53.18
2019-03-22T20:38:40.848Z,54.09
2019-03-22T20:41:10.306Z,54.15
2019-03-22T20:43:39.778Z,54.30
2019-03-22T20:46:09.623Z,53.51
2019-03-22T20:48:40.304Z,54.21
2019-03-22T20:51:09.768Z,55.52
2019-03-22T20:53:39.168Z,55.76
2019-03-22T20:56:08.656Z,56.59
2019-03-22T20:58:38.119Z,56.96
2019-03-22T21:01:07.568Z,56.41
2019-03-22T21:03:37.200Z,57.11
2019-03-22T21:06:06.725Z,56.88
2019-03-22T21:08:36.096Z,56.91
2019-03-22T21:11:05.936Z,56.97
2019-03-22T21:13:35.466Z,56.99
2019-03-22T21:16:04.965Z,56.05
2019-03-22T21:18:34.374Z,56.12
2019-03-22T21:21:03.852Z,56.33
2019-03-22T21:23:36.685Z,56.46
2019-03-22T21:26:04.616Z,55.94
2019-03-22T21:28:34.038Z,55.66
2019-03-22T21:31:03.463Z,55.16
2019-03-22T21:33:33.018Z,55.55
2019-03-22T21:36:02.348Z,55.76
2019-03-22T21:38:31.834Z,55.79
2019-03-22T21:41:01.330Z,56.10
2019-03-22T21:43:30.834Z,55.74
2019-03-22T21:46:00.544Z,56.21
2019-03-22T21:48:29.989Z,56.40
2019-03-22T21:50:59.371Z,57.11
2019-03-22T21:53:29.710Z,57.97
2019-03-22T21:55:59.215Z,58.80
2019-03-22T21:58:28.874Z,59.22
2019-03-22T22:00:58.163Z,58.99
2019-03-22T22:03:27.671Z,58.97
2019-03-22T22:05:57.031Z,58.99
2019-03-22T22:08:26.442Z,58.81
2019-03-22T22:11:00.057Z,58.61
2019-03-22T22:13:27.168Z,58.83
2019-03-22T22:15:56.666Z,58.75
2019-03-22T22:18:26.377Z,58.48
2019-03-22T22:20:55.775Z,59.37
2019-03-22T22:23:25.991Z,59.70
2019-03-22T22:25:55.582Z,59.39
2019-03-22T22:28:25.006Z,59.65
2019-03-22T22:30:54.382Z,59.23
2019-03-22T22:33:23.726Z,59.41
2019-03-22T22:35:58.711Z,59.72
2019-03-22T22:38:24.267Z,60.12
2019-03-22T22:40:53.940Z,60.26
2019-03-22T22:43:23.576Z,60.41
2019-03-22T22:45:53.181Z,60.35
2019-03-22T22:48:22.682Z,60.23
2019-03-22T22:50:52.237Z,60.53
2019-03-22T22:53:21.762Z,60.79
2019-03-22T22:55:51.502Z,60.92
2019-03-22T22:58:20.934Z,61.30
2019-03-22T23:00:50.537Z,61.52
2019-03-22T23:03:19.999Z,61.99
2019-03-22T23:05:49.429Z,61.85
2019-03-22T23:08:19.051Z,62.25
2019-03-22T23:10:48.355Z,62.53
2019-03-22T23:13:17.855Z,63.01
2019-03-22T23:15:47.257Z,63.03
2019-03-22T23:18:16.650Z,62.78
2019-03-22T23:20:46.081Z,63.06
2019-03-22T23:23:17.912Z,63.53
2019-03-22T23:25:47.483Z,63.65
2019-03-22T23:28:17.758Z,64.18
2019-03-22T23:30:47.670Z,64.14
2019-03-22T23:33:17.293Z,64.11
2019-03-22T23:35:46.702Z,64.11
2019-03-22T23:38:16.196Z,64.52
2019-03-22T23:40:45.757Z,64.75
2019-03-22T23:43:15.230Z,65.70
2019-03-22T23:45:44.875Z,65.94
2019-03-22T23:48:14.277Z,66.17
2019-03-22T23:50:43.691Z,65.63
2019-03-22T23:53:13.088Z,65.89
2019-03-22T23:55:42.552Z,66.08
2019-03-22T23:58:12.078Z,65.84
